Terminal Aerodrome Forecast
Issued by NWS

Home | Current Version | Previous Version | Text Only | Print | Product List | Glossary On
Versions: 1 2 3 4 5 6 7 8 9 10 11 12 13 14 15 16 17 18 19 20 21 22 23 24 25 26 27 28 29
747
FTUS41 KOKX 272335
TAFGON
TAF
KGON 272335Z 2800/2824 24010KT P6SM SCT070 BKN100
     FM280400 31005KT P6SM FEW070
     FM281400 28010KT P6SM SKC
     FM282100 25010KT P6SM FEW070=

USA.gov is the U.S. government's official web portal to all federal, state and local government web resources and services.